createdAt,value
2018-01-03T00:00:38.564Z,93419.88
2018-01-03T00:03:06.970Z,93400.72
2018-01-03T00:05:35.396Z,93391.83
2018-01-03T00:08:04.689Z,93393.27
2018-01-03T00:10:33.124Z,93373.82
2018-01-03T00:13:01.554Z,93370.87
2018-01-03T00:15:29.986Z,93374.10
2018-01-03T00:20:40.914Z,93365.50
2018-01-03T00:23:09.307Z,93360.36
2018-01-03T00:25:37.775Z,93347.79
2018-01-03T00:28:06.156Z,93339.46
2018-01-03T00:30:34.523Z,93326.55
2018-01-03T00:33:02.883Z,93314.11
2018-01-03T00:35:31.355Z,93306.81
2018-01-03T00:37:59.691Z,93307.61
2018-01-03T00:40:28.059Z,93297.12
2018-01-03T00:42:56.454Z,93279.47
2018-01-03T00:45:24.827Z,93262.22
2018-01-03T00:47:53.223Z,93271.81
2018-01-03T00:50:21.590Z,93249.88
2018-01-03T00:52:49.968Z,93234.81
2018-01-03T00:55:18.353Z,93240.53
2018-01-03T00:57:46.760Z,93235.07
2018-01-03T01:00:15.151Z,93221.70
2018-01-03T01:02:43.546Z,93228.14
2018-01-03T01:05:11.916Z,93206.10
2018-01-03T01:07:40.290Z,93189.19
2018-01-03T01:10:08.645Z,93194.14
2018-01-03T01:12:37.024Z,93192.58
2018-01-03T01:15:05.470Z,93173.55
2018-01-03T01:17:33.829Z,93169.20
2018-01-03T01:20:02.192Z,93163.72
2018-01-03T01:22:30.537Z,93170.05
2018-01-03T01:24:58.899Z,93145.94
2018-01-03T01:27:27.259Z,93131.55
2018-01-03T01:29:55.607Z,93110.06
2018-01-03T01:32:24.039Z,93094.45
2018-01-03T01:34:52.408Z,93070.88
2018-01-03T01:37:20.825Z,93080.86
2018-01-03T01:39:49.166Z,93073.31
2018-01-03T01:42:17.532Z,93056.96
2018-01-03T01:44:45.915Z,93031.04
2018-01-03T01:47:14.259Z,93016.66
2018-01-03T01:49:42.659Z,93008.30
2018-01-03T01:52:10.987Z,92995.15
2018-01-03T01:54:39.355Z,92988.75
2018-01-03T01:57:07.721Z,92957.83
2018-01-03T01:59:36.111Z,92960.91
2018-01-03T02:02:04.516Z,92959.88
2018-01-03T02:04:32.866Z,92949.23
2018-01-03T02:07:01.245Z,92940.20
2018-01-03T02:09:29.621Z,92933.46
2018-01-03T02:11:57.975Z,92908.37
2018-01-03T02:14:26.378Z,92888.75
2018-01-03T02:16:54.790Z,92881.19
2018-01-03T02:19:23.163Z,92874.70
2018-01-03T02:21:51.507Z,92861.98
2018-01-03T02:24:19.872Z,92830.63
2018-01-03T02:26:48.270Z,92833.30
2018-01-03T02:29:16.608Z,92818.58
2018-01-03T02:31:45.012Z,92809.98
2018-01-03T02:34:13.398Z,92794.95
2018-01-03T02:36:41.817Z,92777.67
2018-01-03T02:39:10.205Z,92768.33
2018-01-03T02:41:38.573Z,92749.88
2018-01-03T02:46:41.463Z,92752.83
2018-01-03T02:49:09.841Z,92727.44
2018-01-03T02:51:38.226Z,92692.50
2018-01-03T02:54:06.578Z,92676.59
2018-01-03T02:56:34.959Z,92663.84
2018-01-03T02:59:03.319Z,92633.52
2018-01-03T03:01:31.657Z,92605.03
2018-01-03T03:04:00.058Z,92598.23
2018-01-03T03:06:28.415Z,92589.62
2018-01-03T03:08:56.779Z,92598.57
2018-01-03T03:11:25.165Z,92592.82
2018-01-03T03:13:53.516Z,92594.81
2018-01-03T03:16:21.921Z,92578.38
2018-01-03T03:18:50.276Z,92568.06
2018-01-03T03:21:18.624Z,92566.73
2018-01-03T03:23:46.986Z,92552.52
2018-01-03T03:26:15.338Z,92530.67
2018-01-03T03:28:43.739Z,92522.40
2018-01-03T03:31:12.145Z,92501.20
2018-01-03T03:33:40.487Z,92478.11
2018-01-03T03:36:08.871Z,92463.48
2018-01-03T03:38:37.228Z,92445.39
2018-01-03T03:41:05.651Z,92436.75
2018-01-03T03:43:33.992Z,92420.77
2018-01-03T03:46:02.387Z,92384.61
2018-01-03T03:48:30.775Z,92382.19
2018-01-03T03:50:59.162Z,92370.52
2018-01-03T03:53:27.544Z,92364.33
2018-01-03T03:55:55.904Z,92357.56
2018-01-03T03:58:24.282Z,92359.38
2018-01-03T04:00:52.861Z,92324.20
2018-01-03T04:03:21.264Z,92324.23
2018-01-03T04:05:49.668Z,92299.27
2018-01-03T04:08:18.029Z,92296.66
2018-01-03T04:10:46.376Z,92268.73
2018-01-03T04:13:14.783Z,92256.61
2018-01-03T04:15:43.183Z,92259.38
2018-01-03T04:18:11.546Z,92259.26
2018-01-03T04:20:39.922Z,92222.69
2018-01-03T04:23:08.320Z,92230.21
2018-01-03T04:25:36.690Z,92211.14
2018-01-03T04:28:05.052Z,92226.18
2018-01-03T04:30:33.422Z,92219.86
2018-01-03T04:33:01.780Z,92201.33
2018-01-03T04:35:30.179Z,92189.49
2018-01-03T04:37:58.592Z,92153.08
2018-01-03T04:40:26.936Z,92133.57
2018-01-03T04:42:55.303Z,92118.31
2018-01-03T04:45:23.663Z,92105.98
2018-01-03T04:47:52.073Z,92094.10
2018-01-03T04:50:20.476Z,92088.23
2018-01-03T04:52:48.870Z,92069.64
2018-01-03T04:55:17.261Z,92069.69
2018-01-03T04:57:45.826Z,92052.17
2018-01-03T05:00:14.210Z,92054.98
2018-01-03T05:02:42.580Z,92066.46
2018-01-03T05:05:10.919Z,92078.91
2018-01-03T05:07:39.312Z,92047.95
2018-01-03T05:10:07.688Z,92049.51
2018-01-03T05:12:36.033Z,92053.63
2018-01-03T05:15:04.447Z,92043.06
2018-01-03T05:17:32.871Z,92033.27
2018-01-03T05:20:01.349Z,92049.92
2018-01-03T05:22:29.721Z,92059.86
2018-01-03T05:24:58.127Z,92052.86
2018-01-03T05:27:26.479Z,92067.43
2018-01-03T05:29:54.852Z,92103.13
2018-01-03T05:32:23.288Z,92246.94
2018-01-03T05:34:51.703Z,92235.03
2018-01-03T05:37:20.080Z,92267.37
2018-01-03T05:39:48.486Z,92284.77
2018-01-03T05:42:16.883Z,92283.03
2018-01-03T05:44:45.333Z,92239.94
2018-01-03T05:47:13.687Z,92208.96
2018-01-03T05:49:42.046Z,92133.55
2018-01-03T05:52:10.387Z,92095.41
2018-01-03T05:54:38.839Z,92062.42
2018-01-03T05:57:07.220Z,92140.94
2018-01-03T05:59:35.643Z,92138.94
2018-01-03T06:02:04.002Z,92074.44
2018-01-03T06:04:32.406Z,92104.22
2018-01-03T06:07:00.811Z,92118.63
2018-01-03T06:09:29.191Z,92107.34
2018-01-03T06:11:57.614Z,92111.16
2018-01-03T06:14:26.003Z,92095.27
2018-01-03T06:16:54.362Z,92102.95
2018-01-03T06:19:22.803Z,92091.00
2018-01-03T06:21:51.159Z,92071.33
2018-01-03T06:24:19.516Z,92048.05
2018-01-03T06:26:47.896Z,92007.04
2018-01-03T06:29:16.240Z,91994.42
2018-01-03T06:31:44.622Z,92021.37
2018-01-03T06:34:12.981Z,92023.20
2018-01-03T06:36:41.446Z,92029.52
2018-01-03T06:39:09.805Z,92046.72
2018-01-03T06:41:38.243Z,92023.34
2018-01-03T06:44:06.668Z,92030.52
2018-01-03T06:46:35.153Z,92017.97
2018-01-03T06:49:03.530Z,92041.28
2018-01-03T06:51:31.907Z,92054.27
2018-01-03T06:54:00.281Z,92056.66
2018-01-03T06:56:28.681Z,92080.91
2018-01-03T06:58:57.108Z,92066.92
2018-01-03T07:01:25.455Z,92059.83
2018-01-03T07:03:53.808Z,92045.14
2018-01-03T07:06:22.173Z,92041.56
2018-01-03T07:08:50.570Z,92020.17
2018-01-03T07:11:18.969Z,92024.14
2018-01-03T07:13:47.346Z,92036.39
2018-01-03T07:16:15.723Z,92051.81
2018-01-03T07:18:44.110Z,92046.44
2018-01-03T07:21:12.489Z,92052.36
2018-01-03T07:23:40.846Z,92030.08
2018-01-03T07:26:09.232Z,92030.10
2018-01-03T07:28:37.596Z,92028.75
2018-01-03T07:31:05.990Z,92013.78
2018-01-03T07:33:34.392Z,92007.01
2018-01-03T07:36:02.747Z,92024.98
2018-01-03T07:38:31.153Z,92044.34
2018-01-03T07:40:59.498Z,92041.23
2018-01-03T07:43:27.855Z,92024.77
2018-01-03T07:45:56.215Z,92026.04
2018-01-03T07:48:24.566Z,92022.52
2018-01-03T07:50:52.992Z,92010.27
2018-01-03T07:53:21.457Z,91999.82
2018-01-03T07:55:49.930Z,91998.72
2018-01-03T07:58:18.307Z,91988.62
2018-01-03T08:00:46.775Z,91976.34
2018-01-03T08:03:15.174Z,91967.04
2018-01-03T08:05:43.600Z,91975.08
2018-01-03T08:08:12.012Z,91995.66
2018-01-03T08:10:40.385Z,92008.98
2018-01-03T08:13:08.780Z,91971.23
2018-01-03T08:15:37.165Z,91975.63
2018-01-03T08:18:05.516Z,91970.61
2018-01-03T08:20:33.891Z,91991.86
2018-01-03T08:23:02.268Z,91995.55
2018-01-03T08:25:30.617Z,92012.50
2018-01-03T08:27:59.047Z,92138.59
2018-01-03T08:30:27.445Z,92154.52
2018-01-03T08:32:55.855Z,92182.47
2018-01-03T08:35:24.240Z,92202.36
2018-01-03T08:37:52.587Z,92191.61
2018-01-03T08:40:20.975Z,92172.89
2018-01-03T08:42:49.338Z,92176.72
2018-01-03T08:45:17.723Z,92197.05
2018-01-03T08:47:46.102Z,92199.38
2018-01-03T08:50:14.455Z,92197.99
2018-01-03T08:52:42.873Z,92208.52
2018-01-03T08:55:11.243Z,92203.20
2018-01-03T08:57:39.606Z,92188.13
2018-01-03T09:00:08.002Z,92188.52
2018-01-03T09:02:36.394Z,92194.44
2018-01-03T09:05:04.768Z,92186.66
2018-01-03T09:07:33.131Z,92194.16
2018-01-03T09:10:01.493Z,92178.07
2018-01-03T09:12:29.862Z,92198.09
2018-01-03T09:14:58.225Z,92211.94
2018-01-03T09:17:26.616Z,92195.98
2018-01-03T09:19:54.989Z,92194.03
2018-01-03T09:22:23.413Z,92192.99
2018-01-03T09:24:51.795Z,92197.02
2018-01-03T09:27:20.151Z,92189.63
2018-01-03T09:29:48.531Z,92203.61
2018-01-03T09:32:16.907Z,92196.83
2018-01-03T09:34:45.276Z,92220.41
2018-01-03T09:37:13.649Z,92202.01
2018-01-03T09:39:42.022Z,92216.87
2018-01-03T09:42:10.412Z,92210.11
2018-01-03T09:44:38.779Z,92208.62
2018-01-03T09:47:07.135Z,92204.50
2018-01-03T09:49:35.544Z,92227.78
2018-01-03T09:52:03.888Z,92225.59
2018-01-03T09:54:32.280Z,92231.98
2018-01-03T09:57:00.651Z,92235.67
2018-01-03T09:59:29.058Z,92237.54
2018-01-03T10:01:57.410Z,92237.39
2018-01-03T10:04:25.800Z,92239.03
2018-01-03T10:06:54.289Z,92239.03
2018-01-03T10:09:22.699Z,92277.17
2018-01-03T10:11:51.090Z,92248.10
2018-01-03T10:14:19.461Z,92232.22
2018-01-03T10:16:47.798Z,92247.77
2018-01-03T10:19:16.335Z,92271.03
2018-01-03T10:21:44.561Z,92253.82
2018-01-03T10:24:12.909Z,92254.45
2018-01-03T10:26:41.292Z,92238.27
2018-01-03T10:29:09.649Z,92250.29
2018-01-03T10:31:38.033Z,92250.74
2018-01-03T10:34:07.463Z,92238.61
2018-01-03T10:36:35.811Z,92243.52
2018-01-03T10:39:04.202Z,92227.55
2018-01-03T10:41:32.562Z,92225.67
2018-01-03T10:44:00.951Z,92262.52
2018-01-03T10:46:29.283Z,92282.12
2018-01-03T10:48:57.653Z,92263.63
2018-01-03T10:51:25.995Z,92289.16
2018-01-03T10:53:54.350Z,92305.46
2018-01-03T10:56:22.731Z,92301.33
2018-01-03T10:58:51.092Z,92310.56
2018-01-03T11:01:20.345Z,92312.09
2018-01-03T11:03:48.707Z,92317.19
2018-01-03T11:06:17.100Z,92333.59
2018-01-03T11:08:45.476Z,92327.02
2018-01-03T11:11:14.684Z,92322.06
2018-01-03T11:13:43.047Z,92328.91
2018-01-03T11:16:11.411Z,92308.55
2018-01-03T11:18:39.758Z,92313.94
2018-01-03T11:21:08.155Z,92332.02
2018-01-03T11:23:36.507Z,92306.25
2018-01-03T11:26:04.858Z,92323.73
2018-01-03T11:28:33.200Z,92317.11
2018-01-03T11:31:01.570Z,92301.63
2018-01-03T11:33:30.059Z,92325.34
2018-01-03T11:35:58.447Z,92309.86
2018-01-03T11:38:26.821Z,92301.98
2018-01-03T11:40:55.233Z,92320.05
2018-01-03T11:43:23.600Z,92317.08
2018-01-03T11:45:52.156Z,92306.94
2018-01-03T11:48:20.509Z,92303.16
2018-01-03T11:50:48.854Z,92304.92
2018-01-03T11:53:17.211Z,92308.19
2018-01-03T11:55:45.574Z,92315.50
2018-01-03T11:58:13.960Z,92318.40
2018-01-03T12:00:42.340Z,92339.02
2018-01-03T12:03:11.668Z,92341.34
2018-01-03T12:05:40.026Z,92325.25
2018-01-03T12:08:08.375Z,92336.88
2018-01-03T12:10:37.591Z,92352.82
2018-01-03T12:13:05.982Z,92339.35
2018-01-03T12:15:34.471Z,92344.25
2018-01-03T12:18:02.855Z,92347.89
2018-01-03T12:20:31.253Z,92358.36
2018-01-03T12:22:59.647Z,92354.31
2018-01-03T12:25:28.032Z,92379.13
2018-01-03T12:27:56.403Z,92376.27
2018-01-03T12:30:24.754Z,92372.11
2018-01-03T12:32:53.142Z,92371.42
2018-01-03T12:35:21.522Z,92369.09
2018-01-03T12:37:49.908Z,92367.14
2018-01-03T12:40:18.322Z,92387.09
2018-01-03T12:42:46.695Z,92380.97
2018-01-03T12:45:15.041Z,92388.59
2018-01-03T12:47:43.412Z,92425.21
2018-01-03T12:50:11.780Z,92391.27
2018-01-03T12:52:40.152Z,92405.31
2018-01-03T12:55:08.570Z,92417.13
2018-01-03T12:57:37.046Z,92391.95
2018-01-03T13:00:06.734Z,92397.80
2018-01-03T13:02:35.156Z,92397.66
2018-01-03T13:05:03.621Z,92410.03
2018-01-03T13:07:31.971Z,92425.40
2018-01-03T13:10:00.349Z,92420.05
2018-01-03T13:12:28.746Z,92409.52
2018-01-03T13:14:57.105Z,92438.66
2018-01-03T13:17:25.497Z,92449.20
2018-01-03T13:19:53.854Z,92451.83
2018-01-03T13:22:32.318Z,92442.60
2018-01-03T13:25:00.812Z,92436.47
2018-01-03T13:27:29.294Z,92462.58
2018-01-03T13:29:57.708Z,92447.25
2018-01-03T13:32:26.083Z,92465.45
2018-01-03T13:34:54.428Z,92462.80
2018-01-03T13:37:22.767Z,92456.23
2018-01-03T13:39:51.137Z,92475.73
2018-01-03T13:42:19.488Z,92464.53
2018-01-03T13:44:47.828Z,92473.10
2018-01-03T13:47:16.270Z,92485.20
2018-01-03T13:49:44.668Z,92488.48
2018-01-03T13:52:13.060Z,92501.98
2018-01-03T13:54:41.423Z,92501.66
2018-01-03T13:57:09.775Z,92518.01
2018-01-03T13:59:38.139Z,92527.75
2018-01-03T14:02:06.500Z,92527.19
2018-01-03T14:04:34.990Z,92533.75
2018-01-03T14:07:03.333Z,92545.16
2018-01-03T14:09:31.673Z,92530.45
2018-01-03T14:12:00.061Z,92560.80
2018-01-03T14:14:28.410Z,92548.35
2018-01-03T14:16:56.805Z,92553.97
2018-01-03T14:19:25.181Z,92560.44
2018-01-03T14:21:53.531Z,92571.30
2018-01-03T14:24:21.910Z,92578.26
2018-01-03T14:26:50.255Z,92555.80
2018-01-03T14:29:18.638Z,92584.44
2018-01-03T14:31:46.970Z,92574.36
2018-01-03T14:34:15.472Z,92591.53
2018-01-03T14:36:43.834Z,92601.84
2018-01-03T14:39:12.186Z,92603.86
2018-01-03T14:41:40.591Z,92590.11
2018-01-03T14:44:08.939Z,92603.74
2018-01-03T14:46:37.314Z,92610.60
2018-01-03T14:49:05.650Z,92610.78
2018-01-03T14:51:34.003Z,92623.93
2018-01-03T14:54:02.393Z,92626.58
2018-01-03T14:56:30.748Z,92606.70
2018-01-03T14:58:59.120Z,92629.55
2018-01-03T15:01:27.451Z,92633.09
2018-01-03T15:03:55.875Z,92635.21
2018-01-03T15:06:24.234Z,92614.04
2018-01-03T15:08:52.610Z,92669.97
2018-01-03T15:11:20.975Z,92635.80
2018-01-03T15:13:49.368Z,92638.97
2018-01-03T15:16:17.710Z,92649.75
2018-01-03T15:18:46.047Z,92648.05
2018-01-03T15:21:14.387Z,92640.02
2018-01-03T15:23:43.699Z,92656.88
2018-01-03T15:26:12.076Z,92660.39
2018-01-03T15:28:40.435Z,92667.51
2018-01-03T15:31:08.791Z,92673.19
2018-01-03T15:33:37.132Z,92655.19
2018-01-03T15:36:05.648Z,92662.80
2018-01-03T15:38:34.006Z,92671.56
2018-01-03T15:41:02.352Z,92655.83
2018-01-03T15:43:30.689Z,92693.08
2018-01-03T15:45:59.035Z,92677.30
2018-01-03T15:48:27.461Z,92678.75
2018-01-03T15:50:55.847Z,92692.92
2018-01-03T15:53:24.231Z,92678.82
2018-01-03T15:55:52.570Z,92698.69
2018-01-03T15:58:20.960Z,92672.12
2018-01-03T16:00:49.347Z,92701.63
2018-01-03T16:03:17.706Z,92710.53
2018-01-03T16:05:46.050Z,92697.04
2018-01-03T16:08:14.427Z,92699.54
2018-01-03T16:10:42.811Z,92706.30
2018-01-03T16:13:11.344Z,92699.95
2018-01-03T16:15:39.699Z,92705.85
2018-01-03T16:18:08.068Z,92716.67
2018-01-03T16:20:36.428Z,92721.84
2018-01-03T16:23:04.775Z,92726.53
2018-01-03T16:25:33.147Z,92735.63
2018-01-03T16:28:01.511Z,92718.48
2018-01-03T16:30:29.860Z,92737.09
2018-01-03T16:32:58.206Z,92740.58
2018-01-03T16:35:26.560Z,92760.75
2018-01-03T16:37:54.974Z,92753.05
2018-01-03T16:40:24.231Z,92745.34
2018-01-03T16:42:52.588Z,92756.17
2018-01-03T16:45:20.932Z,92742.93
2018-01-03T16:47:49.310Z,92752.04
2018-01-03T16:50:17.679Z,92771.02
2018-01-03T16:52:51.652Z,92746.56
2018-01-03T16:55:20.031Z,92738.60
2018-01-03T16:57:48.419Z,92760.31
2018-01-03T17:00:16.903Z,92777.36
2018-01-03T17:02:45.272Z,92788.06
2018-01-03T17:05:13.625Z,92772.52
2018-01-03T17:07:42.005Z,92791.81
2018-01-03T17:10:10.364Z,92788.44
2018-01-03T17:12:38.740Z,92806.02
2018-01-03T17:15:07.450Z,92798.66
2018-01-03T17:17:35.912Z,92802.81
2018-01-03T17:20:04.296Z,92808.02
2018-01-03T17:22:32.648Z,92801.15
2018-01-03T17:25:01.000Z,92805.73
2018-01-03T17:27:29.400Z,92819.48
2018-01-03T17:29:57.754Z,92826.22
2018-01-03T17:32:26.155Z,92814.77
2018-01-03T17:34:54.520Z,92809.01
2018-01-03T17:37:22.903Z,92817.46
2018-01-03T17:39:51.270Z,92819.75
2018-01-03T17:42:19.635Z,92828.37
2018-01-03T17:44:48.024Z,92826.00
2018-01-03T17:47:16.439Z,92823.73
2018-01-03T17:49:44.805Z,92840.58
2018-01-03T17:52:13.158Z,92834.91
2018-01-03T17:54:41.516Z,92834.48
2018-01-03T17:57:09.983Z,92824.88
2018-01-03T17:59:38.385Z,92844.27
2018-01-03T18:02:06.703Z,92850.27
2018-01-03T18:04:35.070Z,92842.56
2018-01-03T18:07:03.411Z,92841.27
2018-01-03T18:09:31.904Z,92860.63
2018-01-03T18:12:00.260Z,92876.95
2018-01-03T18:14:28.803Z,92833.23
2018-01-03T18:16:57.146Z,92842.62
2018-01-03T18:19:25.503Z,92850.52
2018-01-03T18:21:53.859Z,92840.48
2018-01-03T18:24:22.239Z,92836.55
2018-01-03T18:26:50.637Z,92801.59
2018-01-03T18:29:19.071Z,92844.74
2018-01-03T18:31:47.426Z,92847.98
2018-01-03T18:34:15.787Z,92854.39
2018-01-03T18:36:44.143Z,92852.84
2018-01-03T18:39:12.531Z,92846.16
2018-01-03T18:41:41.048Z,92853.63
2018-01-03T18:44:09.476Z,92846.75
2018-01-03T18:46:37.818Z,92864.83
2018-01-03T18:49:06.173Z,92862.48
2018-01-03T18:51:34.571Z,92896.91
2018-01-03T18:54:02.959Z,92867.80
2018-01-03T18:56:31.315Z,92876.25
2018-01-03T18:58:59.670Z,92878.17
2018-01-03T19:01:28.064Z,92884.59
2018-01-03T19:03:58.490Z,92911.19
2018-01-03T19:06:26.855Z,92891.86
2018-01-03T19:08:55.199Z,92892.56
2018-01-03T19:11:23.632Z,92890.95
2018-01-03T19:13:52.007Z,92901.00
2018-01-03T19:16:20.353Z,92909.69
2018-01-03T19:18:48.735Z,92908.50
2018-01-03T19:21:17.097Z,92903.23
2018-01-03T19:23:45.448Z,92915.59
2018-01-03T19:26:13.825Z,92905.05
2018-01-03T19:28:42.169Z,92905.80
2018-01-03T19:31:10.538Z,92909.17
2018-01-03T19:33:38.906Z,92933.98
2018-01-03T19:36:07.342Z,92923.17
2018-01-03T19:38:35.671Z,92933.56
2018-01-03T19:41:04.030Z,92940.02
2018-01-03T19:43:32.395Z,92938.98
2018-01-03T19:46:00.743Z,92933.42
2018-01-03T19:48:29.118Z,92952.50
2018-01-03T19:50:58.392Z,92974.59
2018-01-03T19:53:26.730Z,92947.16
2018-01-03T19:55:55.123Z,92940.94
2018-01-03T19:58:23.471Z,92976.14
2018-01-03T20:00:51.826Z,92980.06
2018-01-03T20:03:20.189Z,92956.57
2018-01-03T20:05:48.556Z,92981.94
2018-01-03T20:08:16.934Z,92969.01
2018-01-03T20:10:45.331Z,92983.46
2018-01-03T20:13:13.688Z,92975.77
2018-01-03T20:15:42.042Z,92970.28
2018-01-03T20:18:10.392Z,92984.66
2018-01-03T20:20:38.775Z,92973.94
2018-01-03T20:23:07.187Z,92981.82
2018-01-03T20:25:35.542Z,92976.53
2018-01-03T20:28:03.883Z,92994.08
2018-01-03T20:30:32.237Z,92980.84
2018-01-03T20:33:00.642Z,92988.76
2018-01-03T20:35:29.079Z,92979.29
2018-01-03T20:37:57.431Z,92989.75
2018-01-03T20:40:25.803Z,92992.48
2018-01-03T20:42:54.161Z,92979.22
2018-01-03T20:45:22.524Z,92994.59
2018-01-03T20:47:50.892Z,93001.02
2018-01-03T20:50:19.246Z,93003.30
2018-01-03T20:52:47.640Z,93000.65
2018-01-03T20:55:16.017Z,92998.30
2018-01-03T20:57:44.499Z,92997.91
2018-01-03T21:00:12.862Z,93009.88
2018-01-03T21:02:41.209Z,93004.73
2018-01-03T21:05:09.581Z,93013.98
2018-01-03T21:07:38.247Z,93000.64
2018-01-03T21:10:06.631Z,93015.64
2018-01-03T21:12:35.009Z,93013.00
2018-01-03T21:15:03.396Z,93009.01
2018-01-03T21:17:31.754Z,93013.02
2018-01-03T21:20:00.148Z,92990.05
2018-01-03T21:22:28.491Z,93006.57
2018-01-03T21:25:00.244Z,93005.66
2018-01-03T21:27:28.592Z,93009.98
2018-01-03T21:29:56.960Z,93010.63
2018-01-03T21:32:25.310Z,93021.14
2018-01-03T21:34:53.689Z,93018.30
2018-01-03T21:37:22.216Z,93011.80
2018-01-03T21:39:50.585Z,93020.28
2018-01-03T21:42:18.952Z,93025.48
2018-01-03T21:44:47.300Z,93010.44
2018-01-03T21:47:15.636Z,93014.16
2018-01-03T21:49:44.031Z,93020.65
2018-01-03T21:52:12.385Z,93003.75
2018-01-03T21:54:40.787Z,92999.98
2018-01-03T21:57:09.175Z,93008.84
2018-01-03T21:59:37.531Z,93004.96
2018-01-03T22:02:05.911Z,93001.88
2018-01-03T22:04:34.301Z,93010.47
2018-01-03T22:07:02.778Z,92997.63
2018-01-03T22:09:31.127Z,93013.88
2018-01-03T22:11:59.486Z,93030.58
2018-01-03T22:14:27.875Z,93024.95
2018-01-03T22:16:56.229Z,93037.34
2018-01-03T22:19:24.615Z,93036.57
2018-01-03T22:21:52.972Z,93024.38
2018-01-03T22:24:21.331Z,93032.68
2018-01-03T22:26:49.736Z,93016.57
2018-01-03T22:29:18.075Z,93026.02
2018-01-03T22:31:46.428Z,93024.36
2018-01-03T22:34:14.782Z,93025.26
2018-01-03T22:36:44.069Z,93040.22
2018-01-03T22:39:12.465Z,93018.16
2018-01-03T22:41:40.842Z,93023.25
2018-01-03T22:44:09.192Z,93022.75
2018-01-03T22:46:37.533Z,93005.58
2018-01-03T22:49:05.892Z,93022.11
2018-01-03T22:51:34.296Z,93038.92
2018-01-03T22:54:02.667Z,93019.54
2018-01-03T22:56:31.038Z,93034.89
2018-01-03T22:58:59.391Z,93038.95
2018-01-03T23:01:27.742Z,93053.70
2018-01-03T23:03:56.117Z,93051.08
2018-01-03T23:06:24.456Z,93058.14
2018-01-03T23:08:52.838Z,93052.58
2018-01-03T23:11:21.198Z,93040.48
2018-01-03T23:13:49.543Z,93039.80
2018-01-03T23:16:17.983Z,93061.41
2018-01-03T23:18:46.358Z,93057.30
2018-01-03T23:21:14.699Z,93052.08
2018-01-03T23:23:43.072Z,93059.23
2018-01-03T23:26:11.436Z,93059.53
2018-01-03T23:28:39.917Z,93063.41
2018-01-03T23:31:08.272Z,93068.11
2018-01-03T23:33:36.638Z,93070.99
2018-01-03T23:36:04.993Z,93063.28
2018-01-03T23:38:33.343Z,93072.24
2018-01-03T23:41:01.831Z,93079.19
2018-01-03T23:43:30.235Z,93073.48
2018-01-03T23:45:58.606Z,93065.52
2018-01-03T23:48:26.954Z,93051.39
2018-01-03T23:50:55.311Z,93063.84
2018-01-03T23:53:24.604Z,93067.06
2018-01-03T23:55:52.973Z,93071.09
2018-01-03T23:58:21.334Z,93075.13
